Las Vegas, Nevada (DRI) Weather observations

Data are for observation ending at time listed.
 Day   Time    Ave.   Ave.  Ave.  Vector   Max.   Stn.    Total    Solar   Ave.  
  of    of     Air    Rel.  Wind   Wind    Wind   Baro.  Precip.   Rad.    Soil  
Year   Day     Temp.  Hum.  Speed  Dir.    Gust   Pres.                    Temp. 
2016   (PST)    F      %     mph   deg.    mph     mb.     in.     W/m2     F   
------------------------------------------------------------------------------
 209    8:30   99.0    16    0.1   210      2.0   941.2    0.00     258    100.9
 209    8:40   99.4    16    0.8   174      3.1   941.2    0.00     544    100.8
 209    8:50  100.0    15    0.5   167      2.9   941.2    0.00     537    100.7
 209    9:00  100.7    15    0.6   172      2.3   941.2    0.00     752    100.7
 209    9:10  101.8    15    0.4    78      2.9   941.2    0.00     778    100.6
 209    9:20  102.2    14    0.5   163      2.9   941.2    0.00     804    100.5
 209    9:30  103.1    13    0.6   320      3.1   941.1    0.00     832    100.5
 209    9:40  103.9    13    1.8   299      4.5   941.1    0.00     853    100.4
 209    9:50  105.2    12    0.9   209      2.9   941.1    0.00     876    100.4
 209   10:00  106.1    12    1.7   295      4.7   941.1    0.00     894    100.3
 209   10:10  106.5    12    0.9   327      3.8   941.0    0.00     915    100.3
 209   10:20  106.7    12    1.0     9      3.0   940.9    0.00     932    100.2
 209   10:30  106.8    12    1.5   178      3.9   940.7    0.00     948    100.1
 209   10:40  107.7    12    1.6   189      4.2   940.6    0.00     964    100.1
 209   10:50  107.9    12    1.5   199      4.6   940.5    0.00     977    100.0
 209   11:00  108.7    12    0.6   186      3.7   940.5    0.00     989    100.0
 209   11:10  109.1    12    1.4    19      3.9   940.4    0.00     999    100.0
 209   11:20  109.5    11    1.6   297      4.7   940.3    0.00    1008    100.0
 209   11:30  110.5    11    1.6   191      6.7   940.1    0.00    1015    100.0
 209   11:40  109.2    11    1.9    47      6.1   940.0    0.00    1023    100.1
 209   11:50  110.0    11    2.2   217      5.0   939.9    0.00    1027    100.1
 209   12:00  109.8    10    2.4   177      7.7   939.7    0.00    1030    100.3
 209   12:10  111.4    10    1.9   193      5.2   939.6    0.00    1030    100.4
 209   12:20  112.1    10    1.1   152      3.9   939.5    0.00    1024    100.5
 209   12:30  113.2    10    0.4   124      2.8   939.4    0.00    1021    100.7
 209   12:40  113.3    10    2.8   197      7.7   939.3    0.00    1019    100.9
 209   12:50  112.8    10    1.9   204      5.8   939.2    0.00    1014    101.0
 209   13:00  113.3     9    1.9   212      5.6   939.0    0.00    1008    101.2
 209   13:10  114.6     9    1.5   330      4.3   938.9    0.00     996    101.4
 209   13:20  113.3    10    1.7   356      5.3   938.7    0.00     983    101.6
 209   13:30  112.5    10    1.8    34      4.6   938.5    0.00     970    101.8
 209   13:40  113.5    10    1.7   179      3.9   938.3    0.00     955    102.1
 209   13:50  114.5     9    2.4   178      5.8   938.1    0.00     935    102.3
 209   14:00  113.4    10    2.7   208      7.1   937.9    0.00     913    102.5
 209   14:10  112.8    10    3.2   229      7.7   937.8    0.00     897    102.8
 209   14:20  114.4    10    1.8    54      4.7   937.7    0.00     870    103.0
 209   14:30  113.2    10    2.5    52      6.1   937.5    0.00     849    103.2
 209   14:40  113.2    10    2.8    42      6.6   937.3    0.00     824    103.5
 209   14:50  113.9    10    1.9    83      5.6   937.2    0.00     801    103.8
 209   15:00  114.0    10    2.8   177      7.5   937.1    0.00     769    104.0
 209   15:10  113.5    10    3.8   183      8.5   937.0    0.00     738    104.3
 209   15:20  113.5    10    3.6   333      7.7   936.9    0.00     705    104.5
 209   15:30  114.3    10    2.4    39      5.8   936.8    0.00     673    104.8
 209   15:40  114.2    10    1.8    39      5.3   936.8    0.00     644    105.0
 209   15:50  115.2     9    1.6   357      5.0   936.6    0.00     608    105.3
 209   16:00  114.1    10    3.3    34      6.4   936.6    0.00     558    105.5
 209   16:10  113.8    10    2.3    21      6.3   936.5    0.00     537    105.8
 209   16:20  116.0     9    0.5   265      2.9   936.4    0.00     507    106.0
 209   16:30  115.7     9    2.6    18      7.0   936.3    0.00     440    106.2
 209   16:40  113.4    10    1.2    60      6.0   936.3    0.00     194    106.4
 209   16:50  114.2     9    1.6    28      4.7   936.3    0.00     392    106.6
 209   17:00  114.7    10    1.4    49      4.7   936.2    0.00     366    106.8
 209   17:10  113.8     9    1.0    35      3.4   936.1    0.00     236    107.0
 209   17:20  114.2    10    1.8   181      5.0   936.0    0.00     297    107.2
 209   17:30  113.6    10    4.2   177      8.7   936.0    0.00     280    107.4
 209   17:40  112.0    10    5.7   201     10.7   936.1    0.00     213    107.5
 209   17:50  110.0    11    6.3   192     14.3   936.3    0.00     174    107.7
 209   18:00  109.5    11    5.6   206     14.6   936.4    0.00     133    107.8
 209   18:10  108.8    11    5.1   204     12.3   936.5    0.00      82    108.0
 209   18:20  108.2    12    3.7   205      7.7   936.6    0.00      32    108.1
 209   18:30  107.7    12    4.1   186      8.0   936.8    0.00      21    108.2
 209   18:40  107.4    12    4.4   182     10.7   936.9    0.00      12    108.3
 209   18:50  107.5    11    4.3   190      7.4   936.9    0.00       7    108.3
 209   19:00  107.5    11    2.8   201      6.0   936.9    0.00       3    108.4
 209   19:10  107.2    11    1.8   197      4.8   936.9    0.00       0    108.4
 209   19:20  106.8    11    2.6   181      5.6   937.0    0.00       0    108.5
 209   19:30  106.7    11    3.2   180      7.2   937.1    0.00       0    108.4
 209   19:40  105.6    12    5.3   177      9.3   937.2    0.00       0    108.4
 209   19:50  105.2    12    5.0   186     10.3   937.3    0.00       0    108.4
 209   20:00  104.9    12    3.0   197      5.6   937.4    0.00       0    108.4
 209   20:10  104.5    13    3.4   187      6.5   937.5    0.00       0    108.4
 209   20:20  104.6    13    2.7   204      5.7   937.6    0.00       0    108.4
 209   20:30  104.6    13    3.7   183      7.3   937.7    0.00       0    108.4
 209   20:40  103.7    13    4.6   181     10.8   937.8    0.00       0    108.3
 209   20:50  103.6    13    3.8   202      8.3   937.9    0.00       0    108.3
 209   21:00  103.6    13    4.8   190      8.9   937.8    0.00       0    108.2
 209   21:10  103.4    13    4.0   190      8.8   937.8    0.00       0    108.2
 209   21:20  103.6    13    3.6   192     10.2   937.8    0.00       0    108.1
 209   21:30  103.2    14    2.7   201      5.6   937.7    0.00       0    108.0
 209   21:40  102.9    14    3.5   203      7.2   937.6    0.00       0    108.0
 209   21:50  102.6    14    4.3   200      7.9   937.6    0.00       0    107.9
 209   22:00  102.1    14    3.3   187      8.0   937.6    0.00       0    107.8
 209   22:10  101.7    14    4.2   185      8.6   937.6    0.00       0    107.7
 209   22:20  101.6    14    4.3   183      8.5   937.6    0.00       0    107.6
 209   22:30  101.5    14    3.3   192      6.1   937.6    0.00       0    107.5
 209   22:40  101.6    14    3.5   183      7.2   937.7    0.00       0    107.4
 209   22:50  101.2    15    3.5   179      6.6   937.8    0.00       0    107.3
 209   23:00  100.0    15    5.0   176      9.6   937.8    0.00       0    107.2
 209   23:10   99.7    15    4.4   176      8.6   937.9    0.00       0    107.2
 209   23:20   99.7    15    3.7   195      8.3   937.9    0.00       0    107.1
 209   23:30   99.8    15    3.9   188      7.4   937.9    0.00       0    107.0
 209   23:40   99.8    15    3.1   186      5.8   938.0    0.00       0    106.9
 209   23:50   99.8    15    4.2   179      8.4   937.9    0.00       0    106.8
 210    0:00   99.9    15    3.8   183      6.0   937.8    0.00       0    106.7
 210    0:10   99.8    15    2.8   180      4.9   937.7    0.00       0    106.6
 210    0:20   99.6    15    2.5   184      5.0   937.7    0.00       0    106.5
 210    0:30   99.4    15    2.5   178      4.5   937.7    0.00       0    106.4
 210    0:40   99.2    15    2.5   189      6.1   937.7    0.00       0    106.3
 210    0:50   99.0    16    0.2   216      2.6   937.7    0.00       0    106.2
 210    1:00   98.0    18    0.0     0      0.0   937.7    0.00       0    106.1
 210    1:10   96.8    19    0.9   165      3.3   937.7    0.00       0    106.0
 210    1:20   96.4    18    0.1   153      1.5   937.7    0.00       0    105.9
 210    1:30   96.3    18    0.0     0      0.0   937.7    0.00       0    105.8
 210    1:40   95.8    19    0.0     0      0.0   937.7    0.00       0    105.7
 210    1:50   94.8    21    0.1   160      1.5   937.8    0.00       0    105.7
 210    2:00   94.4    21    0.0     0      0.0   937.9    0.00       1    105.6
 210    2:10   94.6    21    0.0     0      0.0   938.0    0.00       1    105.5
 210    2:20   94.0    22    0.4   168      2.7   938.0    0.00       0    105.4
 210    2:30   93.9    21    0.5   183      3.1   937.9    0.00       1    105.3
 210    2:40   94.5    19    0.4   183      2.3   938.0    0.00       0    105.2
 210    2:50   94.5    20    0.0   179      1.0   938.0    0.00       0    105.0
 210    3:00   93.7    21    0.0   190      0.8   938.1    0.00       0    104.9
 210    3:10   93.1    21    0.0     0      0.0   938.2    0.00       1    104.8
 210    3:20   93.0    22    0.1   184      1.3   938.1    0.00       1    104.7
 210    3:30   92.6    21    1.7   176      4.4   938.1    0.00       2    104.7
 210    3:40   94.2    19    1.5   170      3.5   938.2    0.00       1    104.6
 210    3:50   94.2    19    0.7   179      3.8   938.3    0.00       0    104.5
 210    4:00   94.2    19    1.3   186      3.7   938.3    0.00       0    104.4
 210    4:10   94.1    20    0.2   322      2.2   938.4    0.00       0    104.3
 210    4:20   93.3    22    0.0     0      0.0   938.5    0.00       1    104.2
 210    4:30   92.0    24    0.4   189      2.3   938.6    0.00       3    104.1
 210    4:40   91.9    24    0.2   173      2.0   938.7    0.00       3    103.9
 210    4:50   91.0    25    0.0     0      0.0   938.8    0.00       3    103.8
 210    5:00   91.6    23    0.0   159      0.8   939.0    0.00       8    103.7
 210    5:10   91.5    23    0.0   159      0.9   939.1    0.00      17    103.7
 210    5:20   91.4    24    0.0     0      0.0   939.3    0.00      30    103.5
 210    5:30   92.1    23    0.2   187      2.6   939.3    0.00      41    103.4
 210    5:40   92.3    24    0.0     0      0.0   939.5    0.00      41    103.4
 210    5:50   92.3    23    0.0     0      0.0   939.6    0.00      42    103.3
 210    6:00   92.3    24    0.2   156      1.2   939.7    0.00      45    103.2
 210    6:10   92.7    24    0.0     0      0.0   939.8    0.00      45    103.1
 210    6:20   93.2    23    0.0     0      0.0   939.8    0.00      45    103.0
 210    6:30   93.5    24    0.0   159      1.2   939.9    0.00      51    102.9
 210    6:40   93.3    24    0.1   161      0.9   940.0    0.00      68    102.8
 210    6:50   94.0    23    0.0   159      0.7   940.1    0.00      70    102.7
 210    7:00   94.6    22    0.0     0      0.0   940.2    0.00      94    102.6
 210    7:10   95.5    22    0.0   164      0.9   940.3    0.00     116    102.5
 210    7:20   96.4    19    0.1    99      1.3   940.3    0.00     128    102.4
 210    7:30   96.8    20    0.0     0      0.0   940.4    0.00     132    102.3
 210    7:40   97.1    20    0.0    54      0.2   940.4    0.00     118    102.2
 210    7:50   97.8    18    0.2   132      4.8   940.3    0.00     120    102.1
 210    8:00   98.2    19    0.1   270      1.6   940.2    0.00     122    102.0
 210    8:10   98.2    20    0.3   322      2.3   940.2    0.00     152    101.9
 210    8:20   98.7    19    0.3   348      1.5   940.3    0.00     164    101.8

Return to Las Vegas, Nevada graphs page.


Western Regional Climate Center,wrcc@dri.edu